sensor_id;sensor_type;location;lat;lon;timestamp;P1;durP1;ratioP1;P2;durP2;ratioP2
10701;SDS011;5402;50.004;8.246;2023-07-29T00:00:43;2.60;;;2.40;;
10701;SDS011;5402;50.004;8.246;2023-07-29T00:03:10;3.30;;;2.40;;
10701;SDS011;5402;50.004;8.246;2023-07-29T00:05:37;3.13;;;2.40;;
10701;SDS011;5402;50.004;8.246;2023-07-29T00:08:05;2.70;;;2.50;;
10701;SDS011;5402;50.004;8.246;2023-07-29T00:10:32;2.93;;;2.40;;
10701;SDS011;5402;50.004;8.246;2023-07-29T00:13:03;2.50;;;2.30;;
10701;SDS011;5402;50.004;8.246;2023-07-29T00:15:30;2.60;;;2.40;;
10701;SDS011;5402;50.004;8.246;2023-07-29T00:17:56;2.77;;;2.10;;
10701;SDS011;5402;50.004;8.246;2023-07-29T00:20:23;2.93;;;2.73;;
10701;SDS011;5402;50.004;8.246;2023-07-29T00:22:50;2.60;;;2.28;;
10701;SDS011;5402;50.004;8.246;2023-07-29T00:25:18;2.80;;;2.47;;
10701;SDS011;5402;50.004;8.246;2023-07-29T00:27:45;2.63;;;2.23;;
10701;SDS011;5402;50.004;8.246;2023-07-29T00:30:13;2.80;;;2.60;;
10701;SDS011;5402;50.004;8.246;2023-07-29T00:32:40;4.17;;;2.50;;
10701;SDS011;5402;50.004;8.246;2023-07-29T00:35:07;2.60;;;2.40;;
10701;SDS011;5402;50.004;8.246;2023-07-29T00:37:34;2.60;;;2.40;;
10701;SDS011;5402;50.004;8.246;2023-07-29T00:40:02;3.90;;;2.50;;
10701;SDS011;5402;50.004;8.246;2023-07-29T00:42:30;4.07;;;2.30;;
10701;SDS011;5402;50.004;8.246;2023-07-29T00:44:56;2.30;;;2.10;;
10701;SDS011;5402;50.004;8.246;2023-07-29T00:47:24;3.40;;;2.20;;
10701;SDS011;5402;50.004;8.246;2023-07-29T00:49:51;3.30;;;2.50;;
10701;SDS011;5402;50.004;8.246;2023-07-29T00:52:18;3.53;;;2.43;;
10701;SDS011;5402;50.004;8.246;2023-07-29T00:54:45;2.60;;;2.40;;
10701;SDS011;5402;50.004;8.246;2023-07-29T00:57:12;3.20;;;2.27;;
10701;SDS011;5402;50.004;8.246;2023-07-29T00:59:41;4.53;;;2.70;;
10701;SDS011;5402;50.004;8.246;2023-07-29T01:02:08;2.80;;;2.40;;
10701;SDS011;5402;50.004;8.246;2023-07-29T01:04:36;2.90;;;2.50;;
10701;SDS011;5402;50.004;8.246;2023-07-29T01:07:03;2.47;;;2.27;;
10701;SDS011;5402;50.004;8.246;2023-07-29T01:09:41;2.63;;;2.30;;
10701;SDS011;5402;50.004;8.246;2023-07-29T01:12:17;4.07;;;2.53;;
10701;SDS011;5402;50.004;8.246;2023-07-29T01:14:51;3.03;;;2.60;;
10701;SDS011;5402;50.004;8.246;2023-07-29T01:17:26;2.43;;;2.23;;
10701;SDS011;5402;50.004;8.246;2023-07-29T01:20:00;3.63;;;2.60;;
10701;SDS011;5402;50.004;8.246;2023-07-29T01:22:32;3.17;;;2.70;;
10701;SDS011;5402;50.004;8.246;2023-07-29T01:25:01;5.90;;;3.10;;
10701;SDS011;5402;50.004;8.246;2023-07-29T01:27:29;3.37;;;3.07;;
10701;SDS011;5402;50.004;8.246;2023-07-29T01:29:56;3.50;;;2.80;;
10701;SDS011;5402;50.004;8.246;2023-07-29T01:32:25;4.40;;;3.10;;
10701;SDS011;5402;50.004;8.246;2023-07-29T01:34:59;4.23;;;3.20;;
10701;SDS011;5402;50.004;8.246;2023-07-29T01:37:33;3.40;;;3.10;;
10701;SDS011;5402;50.004;8.246;2023-07-29T01:40:05;4.17;;;3.40;;
10701;SDS011;5402;50.004;8.246;2023-07-29T01:42:36;3.17;;;2.90;;
10701;SDS011;5402;50.004;8.246;2023-07-29T01:45:04;3.57;;;3.27;;
10701;SDS011;5402;50.004;8.246;2023-07-29T01:47:31;4.68;;;3.47;;
10701;SDS011;5402;50.004;8.246;2023-07-29T01:49:58;3.43;;;3.13;;
10701;SDS011;5402;50.004;8.246;2023-07-29T01:52:25;3.97;;;3.40;;
10701;SDS011;5402;50.004;8.246;2023-07-29T01:54:52;4.50;;;3.37;;
10701;SDS011;5402;50.004;8.246;2023-07-29T01:57:20;3.67;;;3.37;;
10701;SDS011;5402;50.004;8.246;2023-07-29T01:59:47;4.30;;;3.90;;
10701;SDS011;5402;50.004;8.246;2023-07-29T02:02:14;4.00;;;3.57;;
10701;SDS011;5402;50.004;8.246;2023-07-29T02:04:40;3.60;;;3.30;;
10701;SDS011;5402;50.004;8.246;2023-07-29T02:07:07;4.10;;;3.53;;
10701;SDS011;5402;50.004;8.246;2023-07-29T02:09:34;3.90;;;3.60;;
10701;SDS011;5402;50.004;8.246;2023-07-29T02:12:00;4.53;;;4.13;;
10701;SDS011;5402;50.004;8.246;2023-07-29T02:14:29;4.53;;;4.07;;
10701;SDS011;5402;50.004;8.246;2023-07-29T02:16:55;4.60;;;4.07;;
10701;SDS011;5402;50.004;8.246;2023-07-29T02:19:22;4.77;;;3.90;;
10701;SDS011;5402;50.004;8.246;2023-07-29T02:21:49;5.40;;;4.37;;
10701;SDS011;5402;50.004;8.246;2023-07-29T02:24:15;5.13;;;4.07;;
10701;SDS011;5402;50.004;8.246;2023-07-29T02:26:42;4.77;;;4.17;;
10701;SDS011;5402;50.004;8.246;2023-07-29T02:29:09;5.03;;;4.50;;
10701;SDS011;5402;50.004;8.246;2023-07-29T02:31:37;0.00;;;0.00;;
10701;SDS011;5402;50.004;8.246;2023-07-29T02:34:04;0.00;;;0.00;;
10701;SDS011;5402;50.004;8.246;2023-07-29T02:36:30;0.00;;;0.00;;
10701;SDS011;5402;50.004;8.246;2023-07-29T02:38:57;0.00;;;0.00;;
10701;SDS011;5402;50.004;8.246;2023-07-29T02:41:24;0.00;;;0.00;;
10701;SDS011;5402;50.004;8.246;2023-07-29T02:43:51;0.00;;;0.00;;
10701;SDS011;5402;50.004;8.246;2023-07-29T02:46:17;0.00;;;0.00;;
10701;SDS011;5402;50.004;8.246;2023-07-29T02:48:45;0.00;;;0.00;;
10701;SDS011;5402;50.004;8.246;2023-07-29T02:51:13;0.00;;;0.00;;
10701;SDS011;5402;50.004;8.246;2023-07-29T02:53:40;0.00;;;0.00;;
10701;SDS011;5402;50.004;8.246;2023-07-29T02:56:06;0.23;;;0.23;;
10701;SDS011;5402;50.004;8.246;2023-07-29T02:58:34;0.00;;;0.00;;
10701;SDS011;5402;50.004;8.246;2023-07-29T03:01:01;0.00;;;0.00;;
10701;SDS011;5402;50.004;8.246;2023-07-29T03:03:29;0.00;;;0.00;;
10701;SDS011;5402;50.004;8.246;2023-07-29T03:06:00;0.00;;;0.00;;
10701;SDS011;5402;50.004;8.246;2023-07-29T03:08:28;0.00;;;0.00;;
10701;SDS011;5402;50.004;8.246;2023-07-29T03:10:55;0.00;;;0.00;;
10701;SDS011;5402;50.004;8.246;2023-07-29T03:13:22;0.00;;;0.00;;
10701;SDS011;5402;50.004;8.246;2023-07-29T03:15:49;0.00;;;0.00;;
10701;SDS011;5402;50.004;8.246;2023-07-29T03:18:16;0.00;;;0.00;;
10701;SDS011;5402;50.004;8.246;2023-07-29T03:20:43;0.00;;;0.00;;
10701;SDS011;5402;50.004;8.246;2023-07-29T03:23:11;0.00;;;0.00;;
10701;SDS011;5402;50.004;8.246;2023-07-29T03:25:38;0.00;;;0.00;;
10701;SDS011;5402;50.004;8.246;2023-07-29T03:28:04;0.00;;;0.00;;
10701;SDS011;5402;50.004;8.246;2023-07-29T03:30:31;0.00;;;0.00;;
10701;SDS011;5402;50.004;8.246;2023-07-29T03:32:58;0.53;;;0.53;;
10701;SDS011;5402;50.004;8.246;2023-07-29T03:35:24;0.00;;;0.00;;
10701;SDS011;5402;50.004;8.246;2023-07-29T03:37:51;0.00;;;0.00;;
10701;SDS011;5402;50.004;8.246;2023-07-29T03:40:19;0.00;;;0.00;;
10701;SDS011;5402;50.004;8.246;2023-07-29T03:42:46;0.10;;;0.10;;
10701;SDS011;5402;50.004;8.246;2023-07-29T03:45:13;0.00;;;0.00;;
10701;SDS011;5402;50.004;8.246;2023-07-29T03:47:39;0.00;;;0.00;;
10701;SDS011;5402;50.004;8.246;2023-07-29T03:50:06;0.00;;;0.00;;
10701;SDS011;5402;50.004;8.246;2023-07-29T03:52:33;0.00;;;0.00;;
10701;SDS011;5402;50.004;8.246;2023-07-29T03:55:00;0.00;;;0.00;;
10701;SDS011;5402;50.004;8.246;2023-07-29T03:57:28;0.00;;;0.00;;
10701;SDS011;5402;50.004;8.246;2023-07-29T03:59:55;0.00;;;0.00;;
10701;SDS011;5402;50.004;8.246;2023-07-29T04:02:21;0.00;;;0.00;;
10701;SDS011;5402;50.004;8.246;2023-07-29T04:04:48;0.00;;;0.00;;
10701;SDS011;5402;50.004;8.246;2023-07-29T04:07:15;0.20;;;0.20;;
10701;SDS011;5402;50.004;8.246;2023-07-29T04:09:42;0.00;;;0.00;;
10701;SDS011;5402;50.004;8.246;2023-07-29T04:12:09;0.00;;;0.00;;
10701;SDS011;5402;50.004;8.246;2023-07-29T04:14:37;0.00;;;0.00;;
10701;SDS011;5402;50.004;8.246;2023-07-29T04:17:04;0.00;;;0.00;;
10701;SDS011;5402;50.004;8.246;2023-07-29T04:19:31;0.10;;;0.10;;
10701;SDS011;5402;50.004;8.246;2023-07-29T04:21:57;0.00;;;0.00;;
10701;SDS011;5402;50.004;8.246;2023-07-29T04:24:24;0.00;;;0.00;;
10701;SDS011;5402;50.004;8.246;2023-07-29T04:26:51;0.00;;;0.00;;
10701;SDS011;5402;50.004;8.246;2023-07-29T04:29:18;0.00;;;0.00;;
10701;SDS011;5402;50.004;8.246;2023-07-29T04:31:46;0.00;;;0.00;;
10701;SDS011;5402;50.004;8.246;2023-07-29T04:34:12;0.00;;;0.00;;
10701;SDS011;5402;50.004;8.246;2023-07-29T04:36:39;0.00;;;0.00;;
10701;SDS011;5402;50.004;8.246;2023-07-29T04:39:06;0.00;;;0.00;;
10701;SDS011;5402;50.004;8.246;2023-07-29T04:41:33;0.00;;;0.00;;
10701;SDS011;5402;50.004;8.246;2023-07-29T04:43:59;0.00;;;0.00;;
10701;SDS011;5402;50.004;8.246;2023-07-29T04:46:26;0.00;;;0.00;;
10701;SDS011;5402;50.004;8.246;2023-07-29T04:48:54;0.00;;;0.00;;
10701;SDS011;5402;50.004;8.246;2023-07-29T04:51:21;0.00;;;0.00;;
10701;SDS011;5402;50.004;8.246;2023-07-29T04:53:48;0.00;;;0.00;;
10701;SDS011;5402;50.004;8.246;2023-07-29T04:56:14;0.00;;;0.00;;
10701;SDS011;5402;50.004;8.246;2023-07-29T04:58:41;0.00;;;0.00;;
10701;SDS011;5402;50.004;8.246;2023-07-29T05:01:08;0.00;;;0.00;;
10701;SDS011;5402;50.004;8.246;2023-07-29T05:03:35;0.00;;;0.00;;
10701;SDS011;5402;50.004;8.246;2023-07-29T05:06:06;0.00;;;0.00;;
10701;SDS011;5402;50.004;8.246;2023-07-29T05:08:32;0.00;;;0.00;;
10701;SDS011;5402;50.004;8.246;2023-07-29T05:10:59;0.00;;;0.00;;
10701;SDS011;5402;50.004;8.246;2023-07-29T05:13:26;0.00;;;0.00;;
10701;SDS011;5402;50.004;8.246;2023-07-29T05:15:53;0.00;;;0.00;;
10701;SDS011;5402;50.004;8.246;2023-07-29T05:18:20;0.00;;;0.00;;
10701;SDS011;5402;50.004;8.246;2023-07-29T05:20:46;0.00;;;0.00;;
10701;SDS011;5402;50.004;8.246;2023-07-29T05:23:15;0.00;;;0.00;;
10701;SDS011;5402;50.004;8.246;2023-07-29T05:25:41;0.00;;;0.00;;
10701;SDS011;5402;50.004;8.246;2023-07-29T05:28:09;0.00;;;0.00;;
10701;SDS011;5402;50.004;8.246;2023-07-29T05:30:36;0.00;;;0.00;;
10701;SDS011;5402;50.004;8.246;2023-07-29T05:33:04;0.00;;;0.00;;
10701;SDS011;5402;50.004;8.246;2023-07-29T05:35:32;0.00;;;0.00;;
10701;SDS011;5402;50.004;8.246;2023-07-29T05:37:59;0.00;;;0.00;;
10701;SDS011;5402;50.004;8.246;2023-07-29T05:40:27;0.00;;;0.00;;
10701;SDS011;5402;50.004;8.246;2023-07-29T05:42:54;0.00;;;0.00;;
10701;SDS011;5402;50.004;8.246;2023-07-29T05:45:21;0.00;;;0.00;;
10701;SDS011;5402;50.004;8.246;2023-07-29T05:47:48;0.00;;;0.00;;
10701;SDS011;5402;50.004;8.246;2023-07-29T05:50:15;0.00;;;0.00;;
10701;SDS011;5402;50.004;8.246;2023-07-29T05:52:41;0.00;;;0.00;;
10701;SDS011;5402;50.004;8.246;2023-07-29T05:55:08;0.00;;;0.00;;
10701;SDS011;5402;50.004;8.246;2023-07-29T05:57:36;0.00;;;0.00;;
10701;SDS011;5402;50.004;8.246;2023-07-29T06:00:03;0.00;;;0.00;;
10701;SDS011;5402;50.004;8.246;2023-07-29T06:02:31;0.00;;;0.00;;
10701;SDS011;5402;50.004;8.246;2023-07-29T06:04:58;0.00;;;0.00;;
10701;SDS011;5402;50.004;8.246;2023-07-29T06:07:25;0.00;;;0.00;;
10701;SDS011;5402;50.004;8.246;2023-07-29T06:09:54;0.00;;;0.00;;
10701;SDS011;5402;50.004;8.246;2023-07-29T06:12:21;0.00;;;0.00;;
10701;SDS011;5402;50.004;8.246;2023-07-29T06:14:49;0.00;;;0.00;;
10701;SDS011;5402;50.004;8.246;2023-07-29T06:17:16;0.00;;;0.00;;
10701;SDS011;5402;50.004;8.246;2023-07-29T06:19:43;0.00;;;0.00;;
10701;SDS011;5402;50.004;8.246;2023-07-29T06:22:09;0.00;;;0.00;;
10701;SDS011;5402;50.004;8.246;2023-07-29T06:24:36;0.00;;;0.00;;
10701;SDS011;5402;50.004;8.246;2023-07-29T06:27:03;0.00;;;0.00;;
10701;SDS011;5402;50.004;8.246;2023-07-29T06:29:30;0.00;;;0.00;;
10701;SDS011;5402;50.004;8.246;2023-07-29T06:31:58;0.00;;;0.00;;
10701;SDS011;5402;50.004;8.246;2023-07-29T06:34:27;0.00;;;0.00;;
10701;SDS011;5402;50.004;8.246;2023-07-29T06:36:53;0.00;;;0.00;;
10701;SDS011;5402;50.004;8.246;2023-07-29T06:39:20;0.00;;;0.00;;
10701;SDS011;5402;50.004;8.246;2023-07-29T06:41:47;0.00;;;0.00;;
10701;SDS011;5402;50.004;8.246;2023-07-29T06:44:13;0.00;;;0.00;;
10701;SDS011;5402;50.004;8.246;2023-07-29T06:46:40;0.00;;;0.00;;
10701;SDS011;5402;50.004;8.246;2023-07-29T06:49:08;0.00;;;0.00;;
10701;SDS011;5402;50.004;8.246;2023-07-29T06:51:35;0.00;;;0.00;;
10701;SDS011;5402;50.004;8.246;2023-07-29T06:54:02;0.00;;;0.00;;
10701;SDS011;5402;50.004;8.246;2023-07-29T06:56:29;0.00;;;0.00;;
10701;SDS011;5402;50.004;8.246;2023-07-29T06:58:55;0.00;;;0.00;;
10701;SDS011;5402;50.004;8.246;2023-07-29T07:01:22;0.00;;;0.00;;
10701;SDS011;5402;50.004;8.246;2023-07-29T07:03:49;0.00;;;0.00;;
10701;SDS011;5402;50.004;8.246;2023-07-29T07:06:20;0.00;;;0.00;;
10701;SDS011;5402;50.004;8.246;2023-07-29T07:08:49;0.00;;;0.00;;
10701;SDS011;5402;50.004;8.246;2023-07-29T07:11:16;0.00;;;0.00;;
10701;SDS011;5402;50.004;8.246;2023-07-29T07:13:44;0.00;;;0.00;;
10701;SDS011;5402;50.004;8.246;2023-07-29T07:16:10;0.00;;;0.00;;
10701;SDS011;5402;50.004;8.246;2023-07-29T07:18:37;0.00;;;0.00;;
10701;SDS011;5402;50.004;8.246;2023-07-29T07:21:04;0.00;;;0.00;;
10701;SDS011;5402;50.004;8.246;2023-07-29T07:23:32;0.00;;;0.00;;
10701;SDS011;5402;50.004;8.246;2023-07-29T07:25:59;0.00;;;0.00;;
10701;SDS011;5402;50.004;8.246;2023-07-29T07:28:25;0.00;;;0.00;;
10701;SDS011;5402;50.004;8.246;2023-07-29T07:30:52;0.00;;;0.00;;
10701;SDS011;5402;50.004;8.246;2023-07-29T07:33:20;0.00;;;0.00;;
10701;SDS011;5402;50.004;8.246;2023-07-29T07:35:47;0.00;;;0.00;;
10701;SDS011;5402;50.004;8.246;2023-07-29T07:38:14;0.00;;;0.00;;
10701;SDS011;5402;50.004;8.246;2023-07-29T07:40:42;0.00;;;0.00;;
10701;SDS011;5402;50.004;8.246;2023-07-29T07:43:09;0.00;;;0.00;;
10701;SDS011;5402;50.004;8.246;2023-07-29T07:45:36;0.00;;;0.00;;
10701;SDS011;5402;50.004;8.246;2023-07-29T07:48:03;0.00;;;0.00;;
10701;SDS011;5402;50.004;8.246;2023-07-29T07:50:30;0.00;;;0.00;;
10701;SDS011;5402;50.004;8.246;2023-07-29T07:52:57;0.00;;;0.00;;
10701;SDS011;5402;50.004;8.246;2023-07-29T07:55:23;0.00;;;0.00;;
10701;SDS011;5402;50.004;8.246;2023-07-29T07:57:51;0.00;;;0.00;;
10701;SDS011;5402;50.004;8.246;2023-07-29T08:00:18;0.00;;;0.00;;
10701;SDS011;5402;50.004;8.246;2023-07-29T08:02:45;0.00;;;0.00;;
10701;SDS011;5402;50.004;8.246;2023-07-29T08:05:12;0.00;;;0.00;;
10701;SDS011;5402;50.004;8.246;2023-07-29T08:07:39;0.00;;;0.00;;
10701;SDS011;5402;50.004;8.246;2023-07-29T08:10:06;0.40;;;0.40;;
10701;SDS011;5402;50.004;8.246;2023-07-29T08:12:33;0.00;;;0.00;;
10701;SDS011;5402;50.004;8.246;2023-07-29T08:15:01;0.00;;;0.00;;
10701;SDS011;5402;50.004;8.246;2023-07-29T08:17:28;0.00;;;0.00;;
10701;SDS011;5402;50.004;8.246;2023-07-29T08:19:55;0.00;;;0.00;;
10701;SDS011;5402;50.004;8.246;2023-07-29T08:22:22;0.00;;;0.00;;
10701;SDS011;5402;50.004;8.246;2023-07-29T08:24:49;0.00;;;0.00;;
10701;SDS011;5402;50.004;8.246;2023-07-29T08:27:15;0.00;;;0.00;;
10701;SDS011;5402;50.004;8.246;2023-07-29T08:29:42;0.00;;;0.00;;
10701;SDS011;5402;50.004;8.246;2023-07-29T08:32:10;0.00;;;0.00;;
10701;SDS011;5402;50.004;8.246;2023-07-29T08:34:37;0.00;;;0.00;;
10701;SDS011;5402;50.004;8.246;2023-07-29T08:37:04;0.00;;;0.00;;
10701;SDS011;5402;50.004;8.246;2023-07-29T08:39:31;0.00;;;0.00;;
10701;SDS011;5402;50.004;8.246;2023-07-29T08:41:59;1.45;;;1.35;;
10701;SDS011;5402;50.004;8.246;2023-07-29T08:44:31;1.52;;;1.40;;
10701;SDS011;5402;50.004;8.246;2023-07-29T08:47:02;2.17;;;1.70;;
10701;SDS011;5402;50.004;8.246;2023-07-29T08:49:31;1.67;;;1.38;;
10701;SDS011;5402;50.004;8.246;2023-07-29T08:51:59;1.98;;;1.65;;
10701;SDS011;5402;50.004;8.246;2023-07-29T08:54:27;2.47;;;1.60;;
10701;SDS011;5402;50.004;8.246;2023-07-29T08:56:53;2.00;;;1.90;;
10701;SDS011;5402;50.004;8.246;2023-07-29T08:59:20;2.30;;;1.60;;
10701;SDS011;5402;50.004;8.246;2023-07-29T09:01:47;3.45;;;1.75;;
10701;SDS011;5402;50.004;8.246;2023-07-29T09:04:15;1.33;;;1.23;;
10701;SDS011;5402;50.004;8.246;2023-07-29T09:06:44;1.50;;;1.40;;
10701;SDS011;5402;50.004;8.246;2023-07-29T09:09:12;1.50;;;1.38;;
10701;SDS011;5402;50.004;8.246;2023-07-29T09:11:39;1.35;;;1.25;;
10701;SDS011;5402;50.004;8.246;2023-07-29T09:14:05;1.80;;;1.40;;
10701;SDS011;5402;50.004;8.246;2023-07-29T09:16:32;1.65;;;1.50;;
10701;SDS011;5402;50.004;8.246;2023-07-29T09:19:00;1.58;;;1.48;;
10701;SDS011;5402;50.004;8.246;2023-07-29T09:21:28;2.63;;;1.65;;
10701;SDS011;5402;50.004;8.246;2023-07-29T09:23:58;1.63;;;1.52;;
10701;SDS011;5402;50.004;8.246;2023-07-29T09:26:29;1.90;;;1.70;;
10701;SDS011;5402;50.004;8.246;2023-07-29T09:28:57;2.97;;;1.70;;
10701;SDS011;5402;50.004;8.246;2023-07-29T09:31:26;1.90;;;1.80;;
10701;SDS011;5402;50.004;8.246;2023-07-29T09:33:55;1.60;;;1.50;;
10701;SDS011;5402;50.004;8.246;2023-07-29T09:36:23;2.15;;;1.73;;
10701;SDS011;5402;50.004;8.246;2023-07-29T09:38:52;2.95;;;1.75;;
10701;SDS011;5402;50.004;8.246;2023-07-29T09:41:21;1.90;;;1.80;;
10701;SDS011;5402;50.004;8.246;2023-07-29T09:43:51;1.90;;;1.80;;
10701;SDS011;5402;50.004;8.246;2023-07-29T09:46:22;2.45;;;1.80;;
10701;SDS011;5402;50.004;8.246;2023-07-29T09:48:52;2.42;;;2.00;;
10701;SDS011;5402;50.004;8.246;2023-07-29T09:51:20;3.28;;;1.85;;
10701;SDS011;5402;50.004;8.246;2023-07-29T09:53:48;1.70;;;1.60;;
10701;SDS011;5402;50.004;8.246;2023-07-29T09:56:16;1.58;;;1.48;;
10701;SDS011;5402;50.004;8.246;2023-07-29T09:58:44;2.03;;;1.80;;
10701;SDS011;5402;50.004;8.246;2023-07-29T10:01:11;1.83;;;1.73;;
10701;SDS011;5402;50.004;8.246;2023-07-29T10:03:39;2.03;;;1.70;;
10701;SDS011;5402;50.004;8.246;2023-07-29T10:06:06;1.77;;;1.67;;
10701;SDS011;5402;50.004;8.246;2023-07-29T10:08:34;1.83;;;1.73;;
10701;SDS011;5402;50.004;8.246;2023-07-29T10:11:03;1.80;;;1.70;;
10701;SDS011;5402;50.004;8.246;2023-07-29T10:13:32;1.90;;;1.80;;
10701;SDS011;5402;50.004;8.246;2023-07-29T10:16:00;2.95;;;1.90;;
10701;SDS011;5402;50.004;8.246;2023-07-29T10:18:28;1.85;;;1.75;;
10701;SDS011;5402;50.004;8.246;2023-07-29T10:20:56;2.92;;;1.60;;
10701;SDS011;5402;50.004;8.246;2023-07-29T10:23:24;2.60;;;1.73;;
10701;SDS011;5402;50.004;8.246;2023-07-29T10:25:54;1.77;;;1.67;;
10701;SDS011;5402;50.004;8.246;2023-07-29T10:28:25;1.98;;;1.70;;
10701;SDS011;5402;50.004;8.246;2023-07-29T10:30:54;1.90;;;1.48;;
10701;SDS011;5402;50.004;8.246;2023-07-29T10:33:23;1.70;;;1.60;;
10701;SDS011;5402;50.004;8.246;2023-07-29T10:35:50;1.80;;;1.70;;
10701;SDS011;5402;50.004;8.246;2023-07-29T10:38:18;1.90;;;1.80;;
10701;SDS011;5402;50.004;8.246;2023-07-29T10:40:47;1.88;;;1.77;;
10701;SDS011;5402;50.004;8.246;2023-07-29T10:43:19;1.67;;;1.50;;
10701;SDS011;5402;50.004;8.246;2023-07-29T10:45:50;1.90;;;1.80;;
10701;SDS011;5402;50.004;8.246;2023-07-29T10:51:23;3.38;;;1.80;;
10701;SDS011;5402;50.004;8.246;2023-07-29T10:53:54;3.90;;;1.92;;
10701;SDS011;5402;50.004;8.246;2023-07-29T10:56:29;3.30;;;2.30;;
10701;SDS011;5402;50.004;8.246;2023-07-29T10:58:58;2.53;;;2.33;;
10701;SDS011;5402;50.004;8.246;2023-07-29T11:01:28;2.45;;;2.10;;
10701;SDS011;5402;50.004;8.246;2023-07-29T11:07:01;2.42;;;2.22;;
10701;SDS011;5402;50.004;8.246;2023-07-29T11:09:51;2.17;;;2.08;;
10701;SDS011;5402;50.004;8.246;2023-07-29T11:15:20;2.05;;;1.80;;
10701;SDS011;5402;50.004;8.246;2023-07-29T11:17:50;2.10;;;1.90;;
10701;SDS011;5402;50.004;8.246;2023-07-29T11:20:19;2.10;;;1.90;;
10701;SDS011;5402;50.004;8.246;2023-07-29T11:22:47;3.15;;;2.22;;
10701;SDS011;5402;50.004;8.246;2023-07-29T11:25:15;2.92;;;2.72;;
10701;SDS011;5402;50.004;8.246;2023-07-29T11:27:43;2.45;;;2.00;;
10701;SDS011;5402;50.004;8.246;2023-07-29T11:30:11;1.67;;;1.58;;
10701;SDS011;5402;50.004;8.246;2023-07-29T11:32:39;2.53;;;1.70;;
10701;SDS011;5402;50.004;8.246;2023-07-29T11:35:07;1.70;;;1.60;;
10701;SDS011;5402;50.004;8.246;2023-07-29T11:37:37;1.80;;;1.70;;
10701;SDS011;5402;50.004;8.246;2023-07-29T11:40:05;1.95;;;1.75;;
10701;SDS011;5402;50.004;8.246;2023-07-29T11:42:34;2.15;;;1.83;;
10701;SDS011;5402;50.004;8.246;2023-07-29T11:45:02;2.05;;;1.88;;
10701;SDS011;5402;50.004;8.246;2023-07-29T11:47:31;1.75;;;1.65;;
10701;SDS011;5402;50.004;8.246;2023-07-29T11:50:01;1.70;;;1.60;;
10701;SDS011;5402;50.004;8.246;2023-07-29T11:52:28;1.73;;;1.63;;
10701;SDS011;5402;50.004;8.246;2023-07-29T11:54:59;1.65;;;1.55;;
10701;SDS011;5402;50.004;8.246;2023-07-29T11:57:27;1.75;;;1.65;;
10701;SDS011;5402;50.004;8.246;2023-07-29T11:59:54;1.70;;;1.60;;
10701;SDS011;5402;50.004;8.246;2023-07-29T12:02:21;1.60;;;1.50;;
10701;SDS011;5402;50.004;8.246;2023-07-29T12:04:50;1.95;;;1.73;;
10701;SDS011;5402;50.004;8.246;2023-07-29T12:07:17;1.90;;;1.80;;
10701;SDS011;5402;50.004;8.246;2023-07-29T12:09:45;2.50;;;1.60;;
10701;SDS011;5402;50.004;8.246;2023-07-29T12:12:15;1.70;;;1.60;;
10701;SDS011;5402;50.004;8.246;2023-07-29T12:14:43;1.50;;;1.40;;
10701;SDS011;5402;50.004;8.246;2023-07-29T12:17:11;2.25;;;1.80;;
10701;SDS011;5402;50.004;8.246;2023-07-29T12:19:39;2.03;;;1.50;;
10701;SDS011;5402;50.004;8.246;2023-07-29T12:22:07;1.50;;;1.40;;
10701;SDS011;5402;50.004;8.246;2023-07-29T12:24:35;1.67;;;1.58;;
10701;SDS011;5402;50.004;8.246;2023-07-29T12:27:04;2.13;;;1.52;;
10701;SDS011;5402;50.004;8.246;2023-07-29T12:29:39;2.63;;;1.35;;
10701;SDS011;5402;50.004;8.246;2023-07-29T12:32:06;1.88;;;1.50;;
10701;SDS011;5402;50.004;8.246;2023-07-29T12:34:33;1.40;;;1.30;;
10701;SDS011;5402;50.004;8.246;2023-07-29T12:37:03;1.40;;;1.30;;
10701;SDS011;5402;50.004;8.246;2023-07-29T12:39:32;2.20;;;1.52;;
10701;SDS011;5402;50.004;8.246;2023-07-29T12:42:00;1.73;;;1.40;;
10701;SDS011;5402;50.004;8.246;2023-07-29T12:44:29;1.80;;;1.60;;
10701;SDS011;5402;50.004;8.246;2023-07-29T12:46:59;1.88;;;1.55;;
10701;SDS011;5402;50.004;8.246;2023-07-29T12:49:26;1.58;;;1.48;;
10701;SDS011;5402;50.004;8.246;2023-07-29T12:51:54;1.88;;;1.45;;
10701;SDS011;5402;50.004;8.246;2023-07-29T12:54:21;1.55;;;1.42;;
10701;SDS011;5402;50.004;8.246;2023-07-29T12:56:48;2.55;;;1.40;;
10701;SDS011;5402;50.004;8.246;2023-07-29T12:59:15;1.65;;;1.50;;
10701;SDS011;5402;50.004;8.246;2023-07-29T13:01:41;2.50;;;1.30;;
10701;SDS011;5402;50.004;8.246;2023-07-29T13:04:10;3.15;;;1.55;;
10701;SDS011;5402;50.004;8.246;2023-07-29T13:06:37;2.70;;;1.50;;
10701;SDS011;5402;50.004;8.246;2023-07-29T13:09:04;3.05;;;1.70;;
10701;SDS011;5402;50.004;8.246;2023-07-29T13:11:31;2.55;;;1.40;;
10701;SDS011;5402;50.004;8.246;2023-07-29T13:13:58;1.70;;;1.60;;
10701;SDS011;5402;50.004;8.246;2023-07-29T13:16:27;3.10;;;1.73;;
10701;SDS011;5402;50.004;8.246;2023-07-29T13:18:54;2.10;;;1.70;;
10701;SDS011;5402;50.004;8.246;2023-07-29T13:21:22;1.75;;;1.58;;
10701;SDS011;5402;50.004;8.246;2023-07-29T13:23:48;1.85;;;1.45;;
10701;SDS011;5402;50.004;8.246;2023-07-29T13:26:15;1.60;;;1.50;;
10701;SDS011;5402;50.004;8.246;2023-07-29T13:28:42;1.80;;;1.70;;
10701;SDS011;5402;50.004;8.246;2023-07-29T13:31:09;1.90;;;1.60;;
10701;SDS011;5402;50.004;8.246;2023-07-29T13:33:36;2.40;;;1.70;;
10701;SDS011;5402;50.004;8.246;2023-07-29T13:36:03;1.92;;;1.75;;
10701;SDS011;5402;50.004;8.246;2023-07-29T13:38:32;1.80;;;1.70;;
10701;SDS011;5402;50.004;8.246;2023-07-29T13:40:58;1.92;;;1.73;;
10701;SDS011;5402;50.004;8.246;2023-07-29T13:43:25;1.67;;;1.50;;
10701;SDS011;5402;50.004;8.246;2023-07-29T13:45:52;1.73;;;1.63;;
10701;SDS011;5402;50.004;8.246;2023-07-29T13:48:18;1.70;;;1.60;;
10701;SDS011;5402;50.004;8.246;2023-07-29T13:50:45;3.15;;;1.65;;
10701;SDS011;5402;50.004;8.246;2023-07-29T13:53:12;1.50;;;1.40;;
10701;SDS011;5402;50.004;8.246;2023-07-29T13:55:40;1.83;;;1.70;;
10701;SDS011;5402;50.004;8.246;2023-07-29T13:58:07;1.77;;;1.45;;
10701;SDS011;5402;50.004;8.246;2023-07-29T14:00:34;1.92;;;1.60;;
10701;SDS011;5402;50.004;8.246;2023-07-29T14:03:00;1.45;;;1.35;;
10701;SDS011;5402;50.004;8.246;2023-07-29T14:05:27;2.60;;;1.65;;
10701;SDS011;5402;50.004;8.246;2023-07-29T14:07:54;1.42;;;1.33;;
10701;SDS011;5402;50.004;8.246;2023-07-29T14:10:21;2.33;;;1.48;;
10701;SDS011;5402;50.004;8.246;2023-07-29T14:12:49;1.90;;;1.40;;
10701;SDS011;5402;50.004;8.246;2023-07-29T14:15:16;3.58;;;1.77;;
10701;SDS011;5402;50.004;8.246;2023-07-29T14:17:43;1.73;;;1.50;;
10701;SDS011;5402;50.004;8.246;2023-07-29T14:20:10;2.85;;;1.55;;
10701;SDS011;5402;50.004;8.246;2023-07-29T14:22:38;1.70;;;1.60;;
10701;SDS011;5402;50.004;8.246;2023-07-29T14:25:05;1.67;;;1.58;;
10701;SDS011;5402;50.004;8.246;2023-07-29T14:27:33;1.85;;;1.73;;
10701;SDS011;5402;50.004;8.246;2023-07-29T14:30:01;1.70;;;1.60;;
10701;SDS011;5402;50.004;8.246;2023-07-29T14:32:29;2.10;;;1.90;;
10701;SDS011;5402;50.004;8.246;2023-07-29T14:34:55;2.13;;;1.40;;
10701;SDS011;5402;50.004;8.246;2023-07-29T14:37:22;2.30;;;1.60;;
10701;SDS011;5402;50.004;8.246;2023-07-29T14:39:49;1.67;;;1.55;;
10701;SDS011;5402;50.004;8.246;2023-07-29T14:42:16;2.38;;;1.60;;
10701;SDS011;5402;50.004;8.246;2023-07-29T14:44:43;2.35;;;1.80;;
10701;SDS011;5402;50.004;8.246;2023-07-29T14:47:11;1.65;;;1.55;;
10701;SDS011;5402;50.004;8.246;2023-07-29T14:49:37;1.80;;;1.55;;
10701;SDS011;5402;50.004;8.246;2023-07-29T14:52:05;1.63;;;1.42;;
10701;SDS011;5402;50.004;8.246;2023-07-29T14:54:32;1.50;;;1.40;;
10701;SDS011;5402;50.004;8.246;2023-07-29T14:56:59;1.88;;;1.60;;
10701;SDS011;5402;50.004;8.246;2023-07-29T14:59:26;1.90;;;1.50;;
10701;SDS011;5402;50.004;8.246;2023-07-29T15:01:53;1.67;;;1.55;;
10701;SDS011;5402;50.004;8.246;2023-07-29T15:04:21;1.30;;;1.20;;
10701;SDS011;5402;50.004;8.246;2023-07-29T15:06:49;1.60;;;1.50;;
10701;SDS011;5402;50.004;8.246;2023-07-29T15:09:25;2.45;;;1.55;;
10701;SDS011;5402;50.004;8.246;2023-07-29T15:11:52;2.85;;;1.30;;